createdAt,value
2017-08-22T00:02:30.386Z,14.40
2017-08-22T00:05:01.611Z,14.30
2017-08-22T00:07:32.750Z,14.30
2017-08-22T00:10:04.987Z,14.20
2017-08-22T00:12:36.350Z,14.20
2017-08-22T00:15:06.990Z,14.10
2017-08-22T00:17:37.599Z,14.00
2017-08-22T00:20:07.986Z,13.70
2017-08-22T00:22:38.843Z,13.30
2017-08-22T00:25:09.829Z,13.20
2017-08-22T00:27:40.726Z,13.30
2017-08-22T00:30:11.522Z,13.50
2017-08-22T00:32:42.662Z,13.50
2017-08-22T00:35:13.224Z,13.50
2017-08-22T00:37:43.626Z,13.60
2017-08-22T00:40:13.992Z,13.60
2017-08-22T00:42:44.879Z,13.70
2017-08-22T00:45:15.057Z,13.70
2017-08-22T00:47:46.047Z,13.70
2017-08-22T00:50:16.579Z,13.70
2017-08-22T00:52:47.424Z,13.70
2017-08-22T00:55:18.758Z,13.70
2017-08-22T00:57:49.739Z,13.70
2017-08-22T01:00:20.302Z,13.70
2017-08-22T01:02:50.675Z,13.60
2017-08-22T01:05:21.055Z,13.50
2017-08-22T01:07:52.476Z,13.50
2017-08-22T01:10:22.857Z,13.50
2017-08-22T01:12:53.260Z,13.50
2017-08-22T01:15:23.719Z,13.50
2017-08-22T01:17:54.586Z,13.40
2017-08-22T01:20:24.962Z,13.40
2017-08-22T01:22:55.802Z,13.40
2017-08-22T01:25:26.222Z,13.40
2017-08-22T01:27:57.108Z,13.30
2017-08-22T01:30:27.806Z,13.30
2017-08-22T01:32:57.979Z,13.30
2017-08-22T01:35:28.571Z,13.30
2017-08-22T01:37:59.222Z,13.30
2017-08-22T01:40:30.070Z,13.20
2017-08-22T01:43:00.235Z,13.10
2017-08-22T01:45:30.475Z,13.00
2017-08-22T01:48:01.757Z,12.90
2017-08-22T01:50:32.034Z,12.90
2017-08-22T01:53:02.526Z,12.90
2017-08-22T01:55:33.119Z,13.00
2017-08-22T01:58:04.173Z,13.00
2017-08-22T02:00:34.643Z,13.00
2017-08-22T02:03:06.481Z,13.00
2017-08-22T02:05:36.863Z,13.00
2017-08-22T02:08:07.454Z,13.00
2017-08-22T02:10:37.952Z,13.00
2017-08-22T02:13:08.819Z,13.00
2017-08-22T02:15:39.095Z,13.00
2017-08-22T02:18:09.933Z,13.00
2017-08-22T02:20:40.336Z,13.00
2017-08-22T02:23:11.404Z,12.90
2017-08-22T02:25:41.847Z,12.90
2017-08-22T02:28:12.886Z,12.90
2017-08-22T02:30:43.335Z,12.90
2017-08-22T02:33:14.344Z,12.80
2017-08-22T02:35:45.078Z,12.80
2017-08-22T02:38:15.864Z,12.80
2017-08-22T02:40:46.199Z,12.80
2017-08-22T02:43:16.866Z,12.80
2017-08-22T02:45:47.597Z,12.80
2017-08-22T02:48:18.546Z,12.80
2017-08-22T02:50:49.107Z,12.80
2017-08-22T02:53:19.736Z,12.80
2017-08-22T02:55:50.167Z,12.80
2017-08-22T02:58:20.874Z,12.70
2017-08-22T03:00:51.306Z,12.70
2017-08-22T03:03:22.058Z,12.70
2017-08-22T03:05:52.747Z,12.70
2017-08-22T03:08:23.405Z,12.80
2017-08-22T03:10:53.601Z,12.80
2017-08-22T03:13:24.663Z,12.90
2017-08-22T03:15:55.087Z,12.80
2017-08-22T03:18:26.422Z,12.70
2017-08-22T03:20:56.998Z,12.70
2017-08-22T03:23:27.774Z,12.80
2017-08-22T03:25:58.222Z,12.80
2017-08-22T03:28:30.029Z,12.80
2017-08-22T03:31:00.216Z,12.80
2017-08-22T03:33:31.711Z,12.90
2017-08-22T03:36:02.113Z,12.90
2017-08-22T03:38:33.149Z,12.90
2017-08-22T03:41:03.911Z,12.90
2017-08-22T03:43:34.787Z,12.90
2017-08-22T03:46:05.962Z,13.00
2017-08-22T03:48:36.700Z,13.00
2017-08-22T03:51:07.311Z,13.00
2017-08-22T03:53:37.804Z,13.00
2017-08-22T03:56:08.378Z,13.00
2017-08-22T03:58:39.524Z,13.00
2017-08-22T04:01:09.937Z,13.00
2017-08-22T04:03:41.141Z,13.00
2017-08-22T04:06:11.331Z,12.90
2017-08-22T04:08:41.946Z,13.00
2017-08-22T04:11:12.177Z,13.00
2017-08-22T04:13:43.086Z,13.00
2017-08-22T04:16:14.536Z,13.00
2017-08-22T04:18:46.222Z,13.00
2017-08-22T04:21:16.703Z,12.90
2017-08-22T04:23:47.670Z,13.00
2017-08-22T04:26:18.116Z,12.90
2017-08-22T04:28:48.770Z,12.80
2017-08-22T04:31:19.258Z,12.90
2017-08-22T04:33:50.288Z,12.80
2017-08-22T04:36:21.596Z,12.80
2017-08-22T04:38:51.991Z,12.80
2017-08-22T04:41:22.494Z,12.80
2017-08-22T04:43:53.841Z,12.80
2017-08-22T04:46:24.238Z,12.80
2017-08-22T04:48:55.242Z,12.80
2017-08-22T04:51:25.655Z,12.70
2017-08-22T04:53:56.675Z,12.60
2017-08-22T04:56:27.198Z,12.60
2017-08-22T04:58:57.681Z,12.70
2017-08-22T05:01:27.916Z,12.70
2017-08-22T05:03:58.933Z,12.80
2017-08-22T05:06:29.297Z,12.80
2017-08-22T05:11:24.994Z,12.90
2017-08-22T05:13:55.613Z,12.90
2017-08-22T05:16:25.956Z,13.00
2017-08-22T05:18:56.319Z,13.00
2017-08-22T05:21:26.826Z,13.00
2017-08-22T05:23:57.199Z,13.00
2017-08-22T05:26:27.660Z,13.10
2017-08-22T05:28:58.313Z,13.10
2017-08-22T05:31:28.534Z,13.10
2017-08-22T05:33:58.789Z,13.10
2017-08-22T05:36:29.495Z,13.10
2017-08-22T05:38:59.869Z,13.20
2017-08-22T05:41:30.903Z,13.30
2017-08-22T05:44:01.123Z,13.30
2017-08-22T05:46:31.382Z,13.40
2017-08-22T05:49:01.858Z,13.40
2017-08-22T05:51:32.390Z,13.50
2017-08-22T05:54:03.074Z,13.50
2017-08-22T05:56:33.422Z,13.60
2017-08-22T05:59:03.934Z,13.70
2017-08-22T06:01:34.466Z,13.70
2017-08-22T06:04:05.374Z,13.80
2017-08-22T06:06:36.466Z,13.90
2017-08-22T06:09:06.841Z,13.90
2017-08-22T06:11:38.117Z,14.00
2017-08-22T06:14:08.471Z,14.00
2017-08-22T06:16:38.777Z,14.10
2017-08-22T06:19:09.209Z,14.30
2017-08-22T06:21:40.113Z,14.50
2017-08-22T06:24:11.165Z,14.90
2017-08-22T06:26:41.849Z,14.80
2017-08-22T06:29:12.551Z,15.10
2017-08-22T06:31:42.781Z,15.30
2017-08-22T06:34:13.159Z,15.40
2017-08-22T06:36:44.508Z,15.70
2017-08-22T06:39:15.649Z,16.00
2017-08-22T06:41:46.001Z,15.90
2017-08-22T06:44:16.646Z,15.90
2017-08-22T06:46:46.947Z,16.00
2017-08-22T06:49:17.308Z,16.20
2017-08-22T06:51:48.046Z,16.00
2017-08-22T06:54:18.354Z,16.20
2017-08-22T06:56:48.695Z,16.40
2017-08-22T06:59:19.415Z,16.30
2017-08-22T07:01:50.004Z,16.30
2017-08-22T07:04:21.057Z,16.30
2017-08-22T07:06:51.899Z,16.30
2017-08-22T07:09:22.193Z,16.10
2017-08-22T07:11:52.537Z,16.50
2017-08-22T07:14:22.807Z,17.00
2017-08-22T07:16:53.419Z,17.60
2017-08-22T07:19:24.101Z,17.90
2017-08-22T07:21:54.706Z,18.30
2017-08-22T07:24:25.831Z,18.20
2017-08-22T07:26:56.246Z,18.20
2017-08-22T07:29:27.544Z,18.90
2017-08-22T07:31:57.971Z,18.80
2017-08-22T07:34:28.197Z,18.90
2017-08-22T07:36:58.894Z,19.00
2017-08-22T07:39:29.290Z,19.30
2017-08-22T07:42:00.395Z,19.50
2017-08-22T07:44:30.696Z,19.50
2017-08-22T07:47:01.888Z,20.00
2017-08-22T07:49:32.435Z,20.00
2017-08-22T07:52:03.010Z,20.40
2017-08-22T07:54:33.291Z,20.80
2017-08-22T07:57:03.500Z,21.10
2017-08-22T07:59:33.783Z,21.00
2017-08-22T08:02:04.048Z,21.30
2017-08-22T08:04:34.786Z,21.60
2017-08-22T08:07:05.287Z,21.40
2017-08-22T08:09:35.658Z,21.60
2017-08-22T08:12:06.785Z,22.00
2017-08-22T08:14:37.900Z,22.00
2017-08-22T08:17:08.148Z,22.50
2017-08-22T08:19:38.537Z,22.90
2017-08-22T08:22:08.892Z,23.20
2017-08-22T08:24:39.505Z,23.20
2017-08-22T08:27:10.569Z,23.40
2017-08-22T08:29:40.988Z,23.40
2017-08-22T08:32:11.381Z,23.40
2017-08-22T08:34:42.044Z,23.20
2017-08-22T08:37:12.299Z,22.90
2017-08-22T08:39:42.513Z,23.20
2017-08-22T08:42:13.700Z,23.80
2017-08-22T08:44:44.122Z,23.80
2017-08-22T08:47:14.824Z,23.90
2017-08-22T08:49:45.215Z,23.90
2017-08-22T08:52:15.554Z,24.20
2017-08-22T08:54:46.098Z,24.60
2017-08-22T08:57:16.342Z,24.90
2017-08-22T08:59:47.601Z,25.50
2017-08-22T09:02:18.172Z,25.50
2017-08-22T09:04:48.475Z,25.80
2017-08-22T09:07:18.723Z,25.90
2017-08-22T09:09:49.423Z,25.80
2017-08-22T09:12:19.648Z,25.60
2017-08-22T09:14:50.042Z,25.70
2017-08-22T09:17:20.374Z,26.10
2017-08-22T09:19:51.095Z,26.20
2017-08-22T09:22:22.270Z,25.70
2017-08-22T09:24:52.519Z,25.70
2017-08-22T09:27:22.857Z,25.60
2017-08-22T09:29:53.221Z,25.70
2017-08-22T09:32:24.372Z,26.00
2017-08-22T09:34:55.515Z,25.60
2017-08-22T09:37:26.793Z,25.20
2017-08-22T09:39:57.177Z,25.10
2017-08-22T09:42:27.759Z,25.20
2017-08-22T09:44:57.953Z,25.00
2017-08-22T09:47:28.305Z,25.10
2017-08-22T09:49:59.591Z,25.70
2017-08-22T09:52:29.924Z,25.70
2017-08-22T09:55:00.235Z,26.00
2017-08-22T09:57:30.615Z,26.00
2017-08-22T10:00:01.048Z,26.30
2017-08-22T10:02:31.335Z,26.20
2017-08-22T10:05:01.663Z,26.40
2017-08-22T10:07:32.010Z,26.70
2017-08-22T10:10:02.262Z,26.80
2017-08-22T10:12:32.698Z,27.20
2017-08-22T10:15:03.035Z,26.80
2017-08-22T10:17:33.382Z,26.50
2017-08-22T10:20:03.978Z,26.50
2017-08-22T10:22:34.355Z,26.80
2017-08-22T10:25:04.818Z,26.90
2017-08-22T10:27:35.083Z,27.00
2017-08-22T10:30:05.534Z,27.10
2017-08-22T10:32:35.979Z,27.20
2017-08-22T10:35:06.524Z,27.30
2017-08-22T10:37:36.866Z,27.30
2017-08-22T10:40:07.105Z,27.30
2017-08-22T10:42:37.341Z,27.30
2017-08-22T10:45:07.640Z,27.50
2017-08-22T10:47:38.234Z,27.60
2017-08-22T10:50:08.810Z,27.40
2017-08-22T10:52:39.127Z,27.40
2017-08-22T10:55:09.559Z,27.30
2017-08-22T10:57:39.779Z,27.70
2017-08-22T11:00:10.142Z,27.70
2017-08-22T11:02:40.525Z,27.60
2017-08-22T11:05:11.420Z,27.40
2017-08-22T11:07:41.800Z,27.80
2017-08-22T11:10:12.169Z,27.70
2017-08-22T11:12:43.470Z,27.80
2017-08-22T11:15:14.614Z,27.80
2017-08-22T11:17:45.007Z,28.10
2017-08-22T11:20:15.757Z,28.40
2017-08-22T11:22:46.095Z,27.90
2017-08-22T11:25:16.488Z,27.40
2017-08-22T11:27:47.144Z,27.00
2017-08-22T11:30:17.463Z,26.70
2017-08-22T11:32:47.806Z,26.60
2017-08-22T11:35:18.418Z,26.90
2017-08-22T11:37:48.948Z,27.10
2017-08-22T11:40:19.390Z,27.10
2017-08-22T11:42:50.133Z,27.30
2017-08-22T11:45:20.493Z,27.80
2017-08-22T11:47:51.021Z,28.00
2017-08-22T11:50:21.395Z,27.60
2017-08-22T11:52:51.848Z,27.50
2017-08-22T11:55:22.331Z,27.20
2017-08-22T11:57:52.694Z,27.10
2017-08-22T12:00:23.122Z,27.20
2017-08-22T12:02:53.498Z,27.30
2017-08-22T12:05:23.919Z,27.30
2017-08-22T12:07:54.252Z,27.50
2017-08-22T12:10:25.324Z,28.00
2017-08-22T12:12:55.669Z,28.00
2017-08-22T12:15:27.266Z,27.80
2017-08-22T12:17:59.251Z,27.50
2017-08-22T12:20:29.735Z,27.80
2017-08-22T12:23:00.058Z,28.00
2017-08-22T12:25:30.735Z,27.60
2017-08-22T12:28:12.681Z,27.30
2017-08-22T12:30:48.779Z,27.40
2017-08-22T12:33:19.783Z,27.20
2017-08-22T12:35:51.235Z,27.20
2017-08-22T12:38:21.473Z,27.10
2017-08-22T12:40:51.856Z,26.90
2017-08-22T12:43:22.062Z,26.60
2017-08-22T12:45:52.701Z,26.70
2017-08-22T12:48:23.111Z,26.90
2017-08-22T12:50:53.490Z,27.00
2017-08-22T12:53:23.887Z,26.80
2017-08-22T12:55:54.430Z,26.70
2017-08-22T12:58:25.038Z,26.60
2017-08-22T13:00:55.292Z,26.80
2017-08-22T13:03:25.671Z,27.10
2017-08-22T13:05:57.099Z,26.60
2017-08-22T13:08:27.461Z,26.60
2017-08-22T13:10:58.567Z,26.50
2017-08-22T13:13:28.967Z,26.50
2017-08-22T13:15:59.797Z,26.80
2017-08-22T13:18:30.143Z,27.00
2017-08-22T13:21:00.413Z,27.50
2017-08-22T13:23:31.536Z,27.60
2017-08-22T13:26:02.761Z,27.80
2017-08-22T13:28:33.530Z,27.80
2017-08-22T13:31:05.782Z,26.40
2017-08-22T13:33:36.299Z,26.30
2017-08-22T13:36:06.549Z,25.90
2017-08-22T13:38:38.433Z,26.00
2017-08-22T13:41:08.834Z,25.90
2017-08-22T13:43:40.263Z,26.40
2017-08-22T13:46:10.816Z,26.40
2017-08-22T13:48:41.626Z,26.60
2017-08-22T13:51:11.902Z,27.00
2017-08-22T13:53:42.160Z,27.10
2017-08-22T13:56:12.678Z,27.20
2017-08-22T13:58:43.037Z,27.30
2017-08-22T14:01:13.572Z,27.10
2017-08-22T14:03:44.618Z,27.10
2017-08-22T14:06:15.501Z,27.00
2017-08-22T14:08:45.966Z,27.30
2017-08-22T14:11:16.374Z,27.20
2017-08-22T14:13:46.787Z,27.30
2017-08-22T14:16:17.165Z,27.40
2017-08-22T14:18:47.554Z,27.20
2017-08-22T14:21:19.486Z,26.90
2017-08-22T14:23:49.882Z,26.60
2017-08-22T14:26:20.301Z,26.70
2017-08-22T14:28:50.676Z,26.90
2017-08-22T14:31:21.222Z,27.00
2017-08-22T14:33:51.973Z,27.10
2017-08-22T14:36:22.758Z,27.00
2017-08-22T14:38:53.779Z,26.80
2017-08-22T14:41:24.208Z,26.80
2017-08-22T14:43:55.604Z,26.80
2017-08-22T14:46:25.979Z,26.80
2017-08-22T14:48:57.205Z,26.80
2017-08-22T14:51:27.452Z,26.90
2017-08-22T14:53:58.375Z,26.70
2017-08-22T14:56:29.134Z,26.60
2017-08-22T14:59:00.370Z,26.10
2017-08-22T15:01:30.974Z,26.00
2017-08-22T15:04:01.256Z,25.80
2017-08-22T15:06:31.718Z,25.90
2017-08-22T15:09:04.118Z,26.00
2017-08-22T15:11:34.842Z,26.10
2017-08-22T15:14:05.363Z,26.30
2017-08-22T15:16:35.762Z,26.20
2017-08-22T15:19:06.666Z,26.40
2017-08-22T15:21:38.881Z,26.40
2017-08-22T15:24:10.120Z,26.40
2017-08-22T15:26:40.846Z,26.60
2017-08-22T15:29:11.330Z,26.80
2017-08-22T15:31:41.545Z,26.80
2017-08-22T15:34:12.425Z,26.50
2017-08-22T15:36:42.898Z,26.70
2017-08-22T15:39:13.182Z,27.00
2017-08-22T15:41:44.670Z,26.20
2017-08-22T15:44:15.425Z,26.20
2017-08-22T15:46:45.914Z,26.10
2017-08-22T15:49:17.192Z,26.10
2017-08-22T15:51:47.420Z,26.40
2017-08-22T15:54:17.842Z,26.40
2017-08-22T15:56:48.154Z,26.60
2017-08-22T15:59:18.613Z,26.30
2017-08-22T16:01:48.982Z,26.40
2017-08-22T16:04:19.335Z,26.40
2017-08-22T16:06:49.576Z,26.20
2017-08-22T16:09:19.949Z,26.40
2017-08-22T16:11:51.966Z,26.20
2017-08-22T16:14:22.812Z,26.20
2017-08-22T16:16:53.701Z,26.20
2017-08-22T16:19:24.531Z,26.20
2017-08-22T16:21:55.370Z,25.90
2017-08-22T16:24:26.154Z,25.70
2017-08-22T16:26:56.720Z,25.60
2017-08-22T16:29:28.186Z,25.30
2017-08-22T16:32:00.167Z,25.30
2017-08-22T16:34:31.236Z,25.30
2017-08-22T16:37:02.092Z,25.40
2017-08-22T16:39:32.570Z,25.40
2017-08-22T16:42:03.044Z,25.40
2017-08-22T16:44:33.971Z,25.30
2017-08-22T16:47:05.182Z,25.20
2017-08-22T16:49:35.730Z,24.70
2017-08-22T16:52:06.071Z,24.50
2017-08-22T16:54:37.142Z,24.40
2017-08-22T16:57:08.184Z,24.20
2017-08-22T16:59:39.222Z,24.00
2017-08-22T17:02:11.337Z,23.80
2017-08-22T17:04:41.776Z,23.60
2017-08-22T17:07:12.308Z,23.70
2017-08-22T17:09:43.143Z,23.70
2017-08-22T17:12:13.956Z,23.20
2017-08-22T17:14:44.688Z,23.00
2017-08-22T17:17:15.655Z,22.90
2017-08-22T17:19:48.210Z,22.90
2017-08-22T17:22:19.699Z,23.00
2017-08-22T17:24:51.214Z,22.90
2017-08-22T17:27:21.665Z,23.00
2017-08-22T17:29:52.395Z,22.80
2017-08-22T17:32:23.580Z,22.70
2017-08-22T17:34:54.387Z,22.80
2017-08-22T17:37:25.135Z,22.70
2017-08-22T17:39:56.694Z,22.40
2017-08-22T17:42:27.978Z,22.40
2017-08-22T17:44:58.831Z,22.20
2017-08-22T17:47:29.863Z,22.00
2017-08-22T17:50:01.474Z,21.80
2017-08-22T17:52:32.203Z,21.70
2017-08-22T17:55:02.835Z,21.70
2017-08-22T17:57:33.715Z,21.70
2017-08-22T18:00:04.580Z,21.70
2017-08-22T18:02:35.570Z,21.50
2017-08-22T18:05:06.428Z,21.40
2017-08-22T18:07:37.727Z,21.30
2017-08-22T18:10:12.635Z,21.30
2017-08-22T18:12:44.525Z,21.30
2017-08-22T18:15:14.879Z,21.30
2017-08-22T18:17:45.795Z,21.30
2017-08-22T18:20:17.685Z,21.20
2017-08-22T18:22:48.864Z,21.20
2017-08-22T18:25:19.542Z,21.20
2017-08-22T18:27:51.253Z,21.20
2017-08-22T18:30:22.074Z,21.20
2017-08-22T18:32:52.942Z,21.20
2017-08-22T18:35:23.911Z,21.10
2017-08-22T18:37:55.410Z,20.90
2017-08-22T18:40:26.033Z,20.80
2017-08-22T18:42:56.982Z,20.80
2017-08-22T18:45:28.208Z,20.60
2017-08-22T18:47:58.590Z,20.60
2017-08-22T18:50:29.634Z,20.50
2017-08-22T18:53:00.458Z,20.40
2017-08-22T18:55:31.016Z,20.40
2017-08-22T18:58:05.535Z,20.20
2017-08-22T19:00:41.928Z,20.10
2017-08-22T19:03:16.686Z,19.90
2017-08-22T19:05:47.938Z,19.90
2017-08-22T19:08:18.427Z,19.90
2017-08-22T19:10:49.294Z,19.80
2017-08-22T19:13:19.870Z,19.70
2017-08-22T19:15:50.487Z,19.60
2017-08-22T19:18:20.950Z,19.40
2017-08-22T19:20:52.198Z,19.30
2017-08-22T19:23:22.669Z,19.20
2017-08-22T19:25:53.696Z,19.10
2017-08-22T19:28:24.202Z,19.00
2017-08-22T19:30:55.620Z,18.80
2017-08-22T19:33:26.331Z,18.80
2017-08-22T19:35:57.171Z,18.70
2017-08-22T19:38:28.807Z,18.60
2017-08-22T19:40:59.814Z,18.50
2017-08-22T19:43:30.546Z,18.40
2017-08-22T19:46:01.275Z,18.40
2017-08-22T19:48:31.860Z,18.30
2017-08-22T19:51:02.974Z,18.20
2017-08-22T19:53:33.938Z,18.20
2017-08-22T19:56:04.727Z,18.10
2017-08-22T19:58:35.456Z,18.00
2017-08-22T20:01:06.113Z,18.00
2017-08-22T20:03:37.252Z,17.90
2017-08-22T20:06:07.961Z,17.90
2017-08-22T20:08:39.094Z,17.80
2017-08-22T20:11:09.607Z,17.70
2017-08-22T20:13:40.515Z,17.70
2017-08-22T20:16:10.930Z,17.60
2017-08-22T20:18:41.432Z,17.50
2017-08-22T20:21:12.163Z,17.40
2017-08-22T20:23:42.725Z,17.30
2017-08-22T20:26:13.545Z,17.30
2017-08-22T20:28:45.583Z,17.20
2017-08-22T20:31:16.184Z,17.20
2017-08-22T20:33:46.974Z,17.10
2017-08-22T20:36:18.171Z,17.00
2017-08-22T20:38:49.039Z,17.00
2017-08-22T20:41:19.771Z,16.90
2017-08-22T20:43:50.541Z,16.90
2017-08-22T20:46:21.068Z,16.90
2017-08-22T20:48:52.609Z,16.70
2017-08-22T20:51:23.522Z,16.70
2017-08-22T20:53:54.458Z,16.70
2017-08-22T20:56:25.115Z,16.60
2017-08-22T20:58:55.744Z,16.60
2017-08-22T21:01:25.974Z,16.50
2017-08-22T21:03:56.466Z,16.40
2017-08-22T21:06:27.138Z,16.50
2017-08-22T21:08:58.155Z,16.40
2017-08-22T21:11:28.791Z,16.30
2017-08-22T21:13:59.386Z,16.30
2017-08-22T21:16:30.141Z,16.20
2017-08-22T21:19:00.799Z,16.10
2017-08-22T21:21:31.748Z,16.10
2017-08-22T21:24:02.695Z,16.00
2017-08-22T21:26:33.523Z,16.00
2017-08-22T21:29:04.282Z,16.00
2017-08-22T21:31:34.994Z,16.00
2017-08-22T21:34:06.340Z,15.80
2017-08-22T21:36:37.031Z,15.80
2017-08-22T21:39:07.752Z,15.70
2017-08-22T21:41:38.490Z,15.70
2017-08-22T21:44:09.747Z,15.70
2017-08-22T21:46:40.718Z,15.70
2017-08-22T21:49:11.051Z,15.60
2017-08-22T21:51:49.102Z,15.60
2017-08-22T21:54:20.006Z,15.60
2017-08-22T21:56:51.440Z,15.60
2017-08-22T21:59:22.194Z,15.50
2017-08-22T22:01:52.866Z,15.50
2017-08-22T22:04:23.469Z,15.40
2017-08-22T22:06:54.230Z,15.40
2017-08-22T22:09:24.779Z,15.30
2017-08-22T22:11:55.457Z,15.30
2017-08-22T22:14:26.058Z,15.20
2017-08-22T22:16:56.910Z,15.20
2017-08-22T22:19:27.637Z,15.20
2017-08-22T22:21:59.632Z,15.10
2017-08-22T22:24:30.259Z,15.10
2017-08-22T22:27:00.783Z,15.00
2017-08-22T22:29:31.292Z,15.00
2017-08-22T22:32:02.039Z,15.00
2017-08-22T22:34:33.232Z,14.90
2017-08-22T22:37:03.564Z,14.90
2017-08-22T22:39:34.561Z,14.80
2017-08-22T22:42:05.043Z,14.80
2017-08-22T22:44:35.826Z,14.70
2017-08-22T22:47:06.206Z,14.70
2017-08-22T22:49:37.143Z,14.70
2017-08-22T22:52:07.582Z,14.60
2017-08-22T22:54:38.585Z,14.60
2017-08-22T22:57:09.665Z,14.60
2017-08-22T22:59:40.084Z,14.50
2017-08-22T23:02:10.414Z,14.50
2017-08-22T23:04:40.952Z,14.50
2017-08-22T23:07:11.490Z,14.40
2017-08-22T23:09:42.530Z,14.40
2017-08-22T23:12:12.925Z,14.40
2017-08-22T23:14:44.406Z,14.40
2017-08-22T23:17:15.050Z,14.40
2017-08-22T23:19:47.255Z,14.40
2017-08-22T23:22:17.706Z,14.40
2017-08-22T23:24:48.397Z,14.40
2017-08-22T23:27:19.112Z,14.30
2017-08-22T23:29:49.627Z,14.30
2017-08-22T23:32:19.970Z,14.20
2017-08-22T23:34:50.627Z,14.20
2017-08-22T23:37:20.994Z,14.10
2017-08-22T23:39:51.514Z,14.10
2017-08-22T23:42:23.416Z,14.10
2017-08-22T23:44:54.026Z,14.10
2017-08-22T23:47:24.670Z,14.10
2017-08-22T23:49:55.611Z,14.10
2017-08-22T23:52:26.010Z,14.00
2017-08-22T23:54:56.698Z,14.00
2017-08-22T23:57:27.738Z,13.90
2017-08-22T23:59:58.241Z,13.90
